Time;durP1;ratioP1;P1;durP2;ratioP2;P2;SDS_P1;SDS_P2;PMS_P1;PMS_P2;Temp;Humidity;BMP_temperature;BMP_pressure;BME280_temperature;BME280_humidity;BME280_pressure;Samples;Min_cycle;Max_cycle;Signal;HPM_P1;HPM_P2
2021/04/02 00:02:09;;;;;;;4.18;2.78;;;17.60;74.50;;;;;;4992390;28;126823;-42
2021/04/02 00:04:39;;;;;;;5.03;2.90;;;17.60;74.50;;;;;;5008394;28;116783;-44
2021/04/02 00:07:10;;;;;;;4.18;2.45;;;17.60;74.50;;;;;;5018814;28;109977;-42
2021/04/02 00:09:41;;;;;;;4.22;3.20;;;17.70;74.50;;;;;;5014819;28;125897;-44
2021/04/02 00:12:11;;;;;;;4.25;2.88;;;17.70;74.50;;;;;;5007200;28;123088;-42
2021/04/02 00:14:40;;;;;;;6.45;2.78;;;17.70;74.50;;;;;;5016299;27;118046;-41
2021/04/02 00:17:12;;;;;;;5.90;2.85;;;17.70;74.40;;;;;;5011182;28;109003;-42
2021/04/02 00:19:42;;;;;;;3.03;2.50;;;17.70;74.50;;;;;;5019484;28;126305;-42
2021/04/02 00:22:11;;;;;;;3.53;3.08;;;17.70;74.50;;;;;;5013299;28;124208;-42
2021/04/02 00:24:40;;;;;;;4.57;2.92;;;17.70;74.40;;;;;;5017276;28;116986;-42
2021/04/02 00:27:10;;;;;;;6.78;3.58;;;17.80;74.50;;;;;;5006005;27;110045;-42
2021/04/02 00:29:41;;;;;;;3.25;2.95;;;17.80;74.40;;;;;;5020765;28;125863;-42
2021/04/02 00:32:11;;;;;;;4.93;3.05;;;17.80;74.40;;;;;;5012723;27;124788;-42
2021/04/02 00:34:40;;;;;;;4.47;3.15;;;17.80;74.50;;;;;;5015113;28;115934;-42
2021/04/02 00:37:10;;;;;;;3.53;2.88;;;17.80;74.50;;;;;;5010757;27;110067;-42
2021/04/02 00:39:42;;;;;;;4.07;2.30;;;17.80;74.50;;;;;;5019544;28;125232;-42
2021/04/02 00:42:13;;;;;;;2.88;2.58;;;17.80;74.40;;;;;;5007636;27;124033;-42
2021/04/02 00:44:48;;;;;;;5.28;3.05;;;17.80;74.40;;;;;;4996149;28;95919;-42
2021/04/02 00:47:19;;;;;;;5.15;2.90;;;17.90;74.50;;;;;;5010124;27;109488;-53
2021/04/02 00:49:50;;;;;;;3.38;2.67;;;17.90;74.40;;;;;;5014991;28;124068;-50
2021/04/02 00:52:22;;;;;;;3.55;3.08;;;17.90;74.50;;;;;;5008521;28;124843;-51
2021/04/02 00:54:52;;;;;;;3.65;2.75;;;17.90;74.50;;;;;;5012238;28;115561;-50
2021/04/02 00:57:22;;;;;;;3.40;2.80;;;17.90;74.50;;;;;;5012737;28;110861;-42
2021/04/02 00:59:53;;;;;;;3.75;2.75;;;17.90;74.40;;;;;;4991199;28;125082;-54
2021/04/02 01:02:24;;;;;;;2.95;2.65;;;18.00;74.40;;;;;;4998975;28;123877;-53
2021/04/02 01:04:53;;;;;;;3.83;2.67;;;18.00;74.40;;;;;;5009205;28;118073;-50
2021/04/02 01:07:23;;;;;;;3.88;3.47;;;18.00;74.40;;;;;;5013456;27;110345;-53
2021/04/02 01:09:53;;;;;;;3.65;2.58;;;18.00;74.40;;;;;;5018967;27;124867;-53
2021/04/02 01:12:23;;;;;;;3.55;3.25;;;18.10;74.50;;;;;;5008813;28;123971;-50
2021/04/02 01:14:57;;;;;;;2.38;2.17;;;18.10;74.40;;;;;;4991736;28;115572;-49
2021/04/02 01:17:30;;;;;;;4.07;2.55;;;18.20;74.50;;;;;;5005415;27;109628;-52
2021/04/02 01:20:03;;;;;;;3.80;2.85;;;18.20;74.50;;;;;;5018401;28;123544;-53
2021/04/02 01:22:34;;;;;;;4.07;3.03;;;18.20;74.40;;;;;;5010980;28;124399;-51
2021/04/02 01:25:12;;;;;;;3.42;2.88;;;18.20;74.40;;;;;;5013256;28;117288;-46
2021/04/02 01:27:57;;;;;;;3.75;3.00;;;18.30;74.50;;;;;;5012916;27;110271;-51
2021/04/02 01:30:30;;;;;;;5.50;2.72;;;18.30;74.40;;;;;;5007514;28;123230;-49
2021/04/02 01:33:02;;;;;;;2.90;2.58;;;18.40;74.40;;;;;;4990823;28;124517;-49
2021/04/02 01:35:38;;;;;;;4.13;2.92;;;18.40;74.30;;;;;;5004593;28;116426;-42
2021/04/02 01:38:20;;;;;;;3.45;2.80;;;18.50;74.30;;;;;;5011602;28;109612;-42
2021/04/02 01:40:58;;;;;;;3.00;2.58;;;18.50;74.20;;;;;;5007053;28;124060;-41
2021/04/02 01:43:40;;;;;;;4.40;3.22;;;18.60;74.40;;;;;;5018591;28;124221;-42
2021/04/02 01:46:14;;;;;;;4.03;2.80;;;18.60;74.10;;;;;;5002494;28;117004;-42
2021/04/02 01:48:50;;;;;;;2.80;2.50;;;18.70;74.10;;;;;;5009860;27;109669;-49
2021/04/02 01:51:22;;;;;;;3.78;2.80;;;18.70;74.00;;;;;;5010192;28;125206;-42
2021/04/02 01:53:54;;;;;;;;;;;18.80;73.90;;;;;;4987590;28;123769;-46
2021/04/02 01:56:30;;;;;;;3.10;2.47;;;18.90;74.00;;;;;;5020596;28;116312;-42
2021/04/02 01:59:05;;;;;;;3.78;3.05;;;18.90;73.90;;;;;;5008935;28;102946;-49
2021/04/02 02:01:44;;;;;;;3.90;2.47;;;18.90;73.80;;;;;;4988267;28;124791;-41
2021/04/02 02:04:21;;;;;;;3.28;2.67;;;19.00;73.70;;;;;;5006824;27;124653;-42
2021/04/02 02:06:55;;;;;;;3.67;2.38;;;19.10;73.70;;;;;;5000880;28;116227;-42
2021/04/02 02:09:38;;;;;;;2.35;2.15;;;19.10;73.60;;;;;;4999818;28;109550;-43
2021/04/02 02:12:23;;;;;;;2.85;2.42;;;19.20;73.50;;;;;;5011659;28;124828;-42
2021/04/02 02:14:59;;;;;;;4.57;2.72;;;19.20;73.50;;;;;;5006253;28;124617;-42
2021/04/02 02:17:37;;;;;;;3.42;3.05;;;19.20;73.40;;;;;;4983607;27;117069;-42
2021/04/02 02:20:10;;;;;;;3.00;2.15;;;19.30;73.40;;;;;;4990710;28;108671;-42
2021/04/02 02:22:41;;;;;;;2.80;2.60;;;19.40;73.40;;;;;;5009512;28;124296;-42
2021/04/02 02:25:16;;;;;;;3.25;2.88;;;19.40;73.30;;;;;;5014180;28;126598;-42
2021/04/02 02:27:58;;;;;;;2.83;2.53;;;19.40;73.20;;;;;;5017154;28;118740;-42
2021/04/02 02:30:31;;;;;;;4.93;3.08;;;19.50;73.30;;;;;;4997728;27;109610;-42
2021/04/02 02:33:17;;;;;;;4.28;3.20;;;19.50;73.20;;;;;;5014759;28;123845;-42
2021/04/02 02:35:55;;;;;;;3.92;2.60;;;19.60;73.20;;;;;;5006704;28;124969;-42
2021/04/02 02:38:27;;;;;;;4.20;2.83;;;19.60;73.10;;;;;;5009525;28;116988;-42
2021/04/02 02:41:01;;;;;;;3.45;3.15;;;19.70;73.10;;;;;;4998334;28;109606;-42
2021/04/02 02:43:33;;;;;;;2.53;2.33;;;19.70;73.10;;;;;;4994483;28;125617;-42
2021/04/02 02:46:06;;;;;;;3.63;2.63;;;19.80;73.00;;;;;;5007567;28;125540;-42
2021/04/02 02:48:39;;;;;;;3.85;2.72;;;19.80;72.90;;;;;;5013900;28;115999;-42
2021/04/02 02:51:10;;;;;;;3.22;2.75;;;19.90;72.90;;;;;;4995059;28;110753;-42
2021/04/02 02:53:43;;;;;;;3.17;2.88;;;19.90;72.80;;;;;;5004485;28;126782;-42
2021/04/02 02:56:18;;;;;;;3.83;3.10;;;19.90;72.70;;;;;;5020383;28;124772;-43
2021/04/02 02:58:51;;;;;;;3.05;2.67;;;20.00;72.70;;;;;;5025393;28;116636;-43
2021/04/02 03:01:23;;;;;;;3.53;3.22;;;20.10;72.60;;;;;;4991035;28;108783;-42
2021/04/02 03:03:55;;;;;;;3.17;2.88;;;20.10;72.60;;;;;;5010021;28;124895;-42
2021/04/02 03:06:28;;;;;;;3.17;2.85;;;20.10;72.40;;;;;;5005844;28;124745;-42
2021/04/02 03:09:01;;;;;;;3.00;2.72;;;20.20;72.40;;;;;;4998596;28;116988;-41
2021/04/02 03:11:35;;;;;;;3.38;2.58;;;20.20;72.30;;;;;;4997042;28;109203;-41
2021/04/02 03:14:06;;;;;;;;;;;20.30;72.20;;;;;;5009074;28;125721;-41
2021/04/02 03:16:45;;;;;;;3.30;2.65;;;20.30;72.20;;;;;;5001994;28;125197;-41
2021/04/02 03:19:22;;;;;;;3.03;2.72;;;20.40;72.10;;;;;;5009141;27;116628;-41
2021/04/02 03:22:02;;;;;;;2.75;2.53;;;20.40;72.00;;;;;;5004605;27;108655;-41
2021/04/02 03:24:54;;;;;;;3.33;2.47;;;20.50;71.90;;;;;;5008692;28;125816;-41
2021/04/02 03:27:33;;;;;;;3.03;2.53;;;20.60;71.90;;;;;;4997468;28;124736;-42
2021/04/02 03:30:06;;;;;;;3.42;2.97;;;20.60;71.80;;;;;;4992683;27;117172;-41
2021/04/02 03:32:41;;;;;;;3.22;2.63;;;20.60;71.60;;;;;;5009385;27;110598;-42
2021/04/02 03:35:15;;;;;;;4.55;2.95;;;20.70;71.60;;;;;;5015192;28;124141;-41
2021/04/02 03:37:49;;;;;;;3.53;3.22;;;20.70;71.50;;;;;;5004372;28;124830;-42
2021/04/02 03:40:23;;;;;;;2.72;2.50;;;20.80;71.40;;;;;;4994596;28;117754;-41
2021/04/02 03:42:59;;;;;;;3.08;2.47;;;20.80;71.40;;;;;;5004834;28;109017;-49
2021/04/02 03:45:34;;;;;;;5.13;2.65;;;20.90;71.30;;;;;;5013234;28;124388;-49
2021/04/02 03:48:08;;;;;;;3.65;2.85;;;20.90;71.20;;;;;;5022059;28;123362;-51
2021/04/02 03:50:45;;;;;;;3.08;2.75;;;21.00;71.20;;;;;;5006015;28;117315;-42
2021/04/02 03:53:30;;;;;;;3.03;2.78;;;21.00;71.00;;;;;;5010044;28;110627;-50
2021/04/02 03:56:07;;;;;;;2.90;2.60;;;21.00;71.00;;;;;;5000963;28;125235;-43
2021/04/02 03:58:45;;;;;;;2.78;2.58;;;21.10;71.00;;;;;;5018802;28;123390;-51
2021/04/02 04:01:25;;;;;;;3.97;3.50;;;21.10;70.90;;;;;;4992218;28;114818;-52
2021/04/02 04:04:00;;;;;;;3.15;2.85;;;21.20;70.90;;;;;;5003560;28;109042;-50
2021/04/02 04:06:37;;;;;;;3.70;2.83;;;21.20;70.80;;;;;;5013815;28;124302;-51
2021/04/02 04:09:14;;;;;;;3.35;2.88;;;21.30;70.70;;;;;;5009815;27;124561;-54
2021/04/02 04:11:49;;;;;;;3.13;2.78;;;21.30;70.70;;;;;;5013861;28;117697;-50
2021/04/02 04:14:29;;;;;;;3.88;3.53;;;21.40;70.60;;;;;;4999278;28;108116;-51
2021/04/02 04:17:02;;;;;;;3.30;2.85;;;21.40;70.60;;;;;;4991630;28;125225;-53
2021/04/02 04:19:35;;;;;;;2.92;2.72;;;21.50;70.50;;;;;;4991480;28;123186;-50
2021/04/02 04:22:11;;;;;;;3.95;3.03;;;21.50;70.50;;;;;;5001829;28;117154;-50
2021/04/02 04:24:48;;;;;;;3.58;3.28;;;21.50;70.40;;;;;;5023599;27;109450;-51
2021/04/02 04:27:18;;;;;;;3.22;2.92;;;21.60;70.40;;;;;;5020203;28;123672;-50
2021/04/02 04:29:51;;;;;;;3.33;3.00;;;21.60;70.30;;;;;;5008102;28;126032;-50
2021/04/02 04:32:24;;;;;;;2.95;2.63;;;21.70;70.30;;;;;;5015221;27;116043;-50
2021/04/02 04:34:56;;;;;;;3.28;2.97;;;21.70;70.30;;;;;;5008247;27;108515;-42
2021/04/02 04:37:27;;;;;;;3.28;2.97;;;21.80;70.10;;;;;;5013586;28;125170;-51
2021/04/02 04:39:57;;;;;;;3.28;2.97;;;21.80;70.00;;;;;;5023441;28;124524;-51
2021/04/02 04:42:30;;;;;;;3.45;3.10;;;21.80;70.00;;;;;;5017767;27;116518;-42
2021/04/02 04:45:03;;;;;;;3.95;3.33;;;21.80;69.90;;;;;;5012845;28;108278;-53
2021/04/02 04:47:36;;;;;;;4.45;3.58;;;21.90;69.90;;;;;;5011070;27;124996;-52
2021/04/02 04:50:09;;;;;;;3.40;3.10;;;21.90;69.80;;;;;;5011771;28;124064;-42
2021/04/02 04:52:56;;;;;;;3.78;3.25;;;22.00;69.80;;;;;;5016364;27;116714;-50
2021/04/02 04:55:28;;;;;;;3.78;3.30;;;22.00;69.80;;;;;;5022086;28;108578;-50
2021/04/02 04:57:59;;;;;;;4.38;3.42;;;22.00;69.70;;;;;;4995530;28;126864;-51
2021/04/02 05:00:31;;;;;;;3.85;3.45;;;22.10;69.70;;;;;;5006379;27;124912;-51
2021/04/02 05:03:06;;;;;;;3.75;3.38;;;22.10;69.60;;;;;;5015652;27;115470;-51
2021/04/02 05:05:41;;;;;;;3.55;3.05;;;22.10;69.50;;;;;;5022744;28;108067;-51
2021/04/02 05:08:33;;;;;;;4.80;3.50;;;22.10;69.50;;;;;;5022692;28;112801;-51
2021/04/02 05:11:06;;;;;;;4.13;3.72;;;22.20;69.50;;;;;;5019879;28;125288;-43
2021/04/02 05:13:38;;;;;;;3.92;3.53;;;22.20;69.40;;;;;;5011719;28;119002;-50
2021/04/02 05:16:12;;;;;;;3.28;2.70;;;22.30;69.30;;;;;;5015131;28;109179;-50
2021/04/02 05:18:45;;;;;;;4.38;3.90;;;22.30;69.20;;;;;;5010059;27;123376;-43
2021/04/02 05:21:15;;;;;;;3.35;3.05;;;22.30;69.30;;;;;;5011430;28;124529;-51
2021/04/02 05:23:44;;;;;;;3.67;3.22;;;22.40;69.20;;;;;;5008755;28;118487;-43
2021/04/02 05:26:16;;;;;;;3.55;3.20;;;22.40;69.20;;;;;;5016447;28;108964;-50
2021/04/02 05:28:49;;;;;;;3.70;3.30;;;22.40;69.10;;;;;;5013666;27;125489;-43
2021/04/02 05:31:22;;;;;;;3.95;3.35;;;22.50;69.10;;;;;;5009741;28;123084;-43
2021/04/02 05:34:11;;;;;;;3.83;3.42;;;22.50;69.10;;;;;;4999753;28;117277;-43
2021/04/02 05:36:41;;;;;;;3.72;3.33;;;22.50;69.00;;;;;;5006773;28;109298;-43
2021/04/02 05:39:12;;;;;;;3.45;3.15;;;22.60;69.00;;;;;;4996276;28;125254;-51
2021/04/02 05:41:54;;;;;;;4.10;3.00;;;22.60;69.00;;;;;;5013669;28;124575;-51
2021/04/02 05:44:32;;;;;;;4.00;3.33;;;22.60;68.90;;;;;;5008195;28;115443;-43
2021/04/02 05:47:08;;;;;;;3.50;3.20;;;22.60;68.90;;;;;;5009190;28;109928;-52
2021/04/02 05:49:40;;;;;;;3.35;3.10;;;22.70;68.90;;;;;;5013762;28;124348;-43
2021/04/02 05:52:14;;;;;;;3.42;3.13;;;22.70;68.80;;;;;;5013049;28;124964;-42
2021/04/02 05:54:48;;;;;;;3.15;2.95;;;22.70;68.90;;;;;;5012397;28;117063;-42
2021/04/02 05:57:17;;;;;;;3.60;3.30;;;22.70;68.80;;;;;;5012868;28;109924;-43
2021/04/02 05:59:48;;;;;;;3.53;3.22;;;22.80;68.80;;;;;;5020882;28;125297;-50
2021/04/02 06:02:20;;;;;;;3.35;3.13;;;22.80;68.70;;;;;;5017232;28;125381;-49
2021/04/02 06:04:51;;;;;;;3.53;3.15;;;22.80;68.70;;;;;;5013979;28;117145;-50
2021/04/02 06:07:20;;;;;;;3.40;3.10;;;22.80;68.70;;;;;;5014508;28;110089;-50
2021/04/02 06:09:49;;;;;;;3.15;2.85;;;22.90;68.70;;;;;;5011397;28;124869;-51
2021/04/02 06:12:25;;;;;;;3.78;3.40;;;22.90;68.70;;;;;;5011338;28;127439;-43
2021/04/02 06:14:56;;;;;;;4.25;3.88;;;22.90;68.60;;;;;;5013879;28;117994;-49
2021/04/02 06:17:27;;;;;;;4.30;3.90;;;22.90;68.60;;;;;;5014261;28;108458;-42
2021/04/02 06:20:08;;;;;;;3.28;3.03;;;22.90;68.60;;;;;;5019260;28;123860;-50
2021/04/02 06:22:41;;;;;;;3.42;3.10;;;23.00;68.60;;;;;;5015269;28;123409;-51
2021/04/02 06:25:18;;;;;;;3.80;3.50;;;23.00;68.70;;;;;;5010819;27;116962;-50
2021/04/02 06:27:54;;;;;;;3.83;3.35;;;23.00;68.60;;;;;;5011205;28;110048;-42
2021/04/02 06:30:28;;;;;;;3.28;3.05;;;23.00;68.60;;;;;;5004873;27;124944;-42
2021/04/02 06:33:01;;;;;;;3.47;3.17;;;23.10;68.60;;;;;;5018638;27;124738;-42
2021/04/02 06:35:42;;;;;;;4.05;3.65;;;23.10;68.60;;;;;;5012017;28;115189;-42
2021/04/02 06:38:12;;;;;;;3.47;3.17;;;23.10;68.60;;;;;;5018043;28;109939;-42
2021/04/02 06:40:41;;;;;;;4.25;3.63;;;23.10;68.60;;;;;;5012811;28;125692;-42
2021/04/02 06:43:11;;;;;;;4.15;3.85;;;23.10;68.50;;;;;;5007014;28;124317;-42
2021/04/02 06:45:43;;;;;;;4.85;3.88;;;23.10;68.50;;;;;;4992574;28;117872;-42
2021/04/02 06:48:17;;;;;;;3.20;2.90;;;23.20;68.60;;;;;;5015886;28;110142;-51
2021/04/02 06:50:48;;;;;;;3.50;3.20;;;23.20;68.60;;;;;;5014079;27;124716;-42
2021/04/02 06:53:20;;;;;;;3.95;3.65;;;23.20;68.60;;;;;;5015683;28;124819;-50
2021/04/02 06:55:52;;;;;;;4.43;3.90;;;23.20;68.50;;;;;;5015081;28;117016;-45
2021/04/02 06:58:25;;;;;;;3.50;3.20;;;23.20;68.60;;;;;;5011879;28;109343;-42
2021/04/02 07:01:02;;;;;;;4.00;3.70;;;23.20;68.50;;;;;;5004233;27;124906;-44
2021/04/02 07:03:33;;;;;;;2.83;2.63;;;23.20;68.60;;;;;;5028507;28;124618;-43
2021/04/02 07:06:07;;;;;;;4.22;3.45;;;23.30;68.60;;;;;;5017089;27;116754;-42
2021/04/02 07:08:42;;;;;;;3.70;3.40;;;23.30;68.60;;;;;;5012579;28;109989;-42
2021/04/02 07:11:13;;;;;;;3.97;3.55;;;23.30;68.60;;;;;;5015710;27;125304;-42
2021/04/02 07:13:46;;;;;;;;;;;23.30;68.60;;;;;;5020732;28;125283;-42
2021/04/02 07:16:19;;;;;;;4.07;3.75;;;23.30;68.60;;;;;;5005247;27;115188;-42
2021/04/02 07:18:50;;;;;;;6.30;3.85;;;23.30;68.60;;;;;;5015241;28;104854;-42
2021/04/02 07:21:21;;;;;;;4.28;3.88;;;23.30;68.60;;;;;;5016957;27;126425;-50
2021/04/02 07:23:53;;;;;;;4.65;3.53;;;23.30;68.60;;;;;;5013712;28;124677;-42
2021/04/02 07:26:24;;;;;;;3.88;3.47;;;23.30;68.60;;;;;;5008797;28;116890;-42
2021/04/02 07:28:55;;;;;;;4.60;3.75;;;23.40;68.70;;;;;;5009499;28;109610;-48
2021/04/02 07:31:27;;;;;;;4.47;4.00;;;23.40;68.70;;;;;;5010374;28;123920;-42
2021/04/02 07:33:59;;;;;;;3.83;3.53;;;23.30;68.60;;;;;;5000552;28;127593;-42
2021/04/02 07:36:37;;;;;;;4.15;3.72;;;23.30;68.60;;;;;;5012377;27;116957;-42
2021/04/02 07:39:08;;;;;;;4.25;3.85;;;23.40;68.60;;;;;;5013412;27;109958;-42
2021/04/02 07:41:57;;;;;;;3.63;3.33;;;23.40;68.60;;;;;;5013074;28;124482;-42
2021/04/02 07:44:37;;;;;;;4.57;3.55;;;23.40;68.60;;;;;;5014052;28;124716;-52
2021/04/02 07:47:13;;;;;;;4.50;4.10;;;23.40;68.70;;;;;;5008673;28;116973;-42
2021/04/02 07:49:54;;;;;;;4.38;3.97;;;23.40;68.70;;;;;;5012584;28;109125;-43
2021/04/02 07:52:34;;;;;;;4.50;4.10;;;23.40;68.70;;;;;;5010381;27;123709;-45
2021/04/02 07:55:16;;;;;;;4.65;4.25;;;23.40;68.70;;;;;;5021161;28;122760;-51
2021/04/02 07:57:52;;;;;;;4.25;3.85;;;23.40;68.70;;;;;;5016927;28;117611;-44
2021/04/02 08:00:25;;;;;;;4.88;4.43;;;23.40;68.80;;;;;;5012834;28;108355;-44
2021/04/02 08:03:09;;;;;;;4.00;3.60;;;23.40;68.80;;;;;;5009768;27;131562;-43
2021/04/02 08:05:45;;;;;;;5.60;4.15;;;23.40;68.80;;;;;;5024166;28;123206;-51
2021/04/02 08:08:16;;;;;;;9.25;5.50;;;23.40;68.90;;;;;;5021517;28;117005;-61
2021/04/02 08:11:06;;;;;;;8.02;5.13;;;23.40;68.60;;;;;;5021194;28;109827;-42
2021/04/02 08:13:52;;;;;;;9.90;5.47;;;23.30;68.50;;;;;;5013141;28;125072;-42
2021/04/02 08:16:39;;;;;;;8.10;6.15;;;23.30;68.40;;;;;;5014387;27;124763;-50
2021/04/02 08:19:11;;;;;;;10.70;7.03;;;23.30;68.80;;;;;;5021242;27;116701;-42
2021/04/02 08:21:50;;;;;;;9.80;7.50;;;23.30;68.90;;;;;;5026277;28;108176;-44
2021/04/02 08:24:22;;;;;;;11.43;7.53;;;23.30;68.60;;;;;;5002632;28;125886;-43
2021/04/02 08:26:54;;;;;;;16.33;8.05;;;23.20;68.80;;;;;;5012239;28;124937;-43
2021/04/02 08:29:27;;;;;;;16.48;8.55;;;23.30;69.30;;;;;;5014375;27;116598;-48
2021/04/02 08:32:08;;;;;;;10.80;7.30;;;23.20;70.00;;;;;;5019049;27;107949;-49
2021/04/02 08:34:40;;;;;;;12.68;6.95;;;23.20;70.00;;;;;;5009344;27;123648;-49
2021/04/02 08:37:16;;;;;;;18.98;7.82;;;23.20;69.80;;;;;;5022333;28;123433;-43
2021/04/02 08:39:46;;;;;;;8.25;6.60;;;23.20;69.70;;;;;;5014202;28;116459;-49
2021/04/02 08:42:18;;;;;;;11.00;7.55;;;23.20;69.70;;;;;;5015928;28;110179;-49
2021/04/02 08:44:51;;;;;;;10.05;6.93;;;23.20;69.70;;;;;;5002250;28;125218;-48
2021/04/02 08:47:23;;;;;;;8.75;6.70;;;23.20;69.60;;;;;;5014902;28;123052;-50
2021/04/02 08:49:56;;;;;;;10.52;7.70;;;23.20;69.70;;;;;;5003752;28;118598;-52
2021/04/02 08:52:30;;;;;;;12.73;9.38;;;23.20;69.70;;;;;;5025819;28;109711;-49
2021/04/02 08:55:03;;;;;;;15.30;9.80;;;23.20;70.20;;;;;;5021487;28;124702;-43
2021/04/02 08:57:37;;;;;;;11.07;8.80;;;23.10;70.60;;;;;;5019998;28;125395;-48
2021/04/02 09:00:12;;;;;;;15.35;9.45;;;23.10;70.70;;;;;;5014337;28;117270;-44
2021/04/02 09:02:43;;;;;;;15.43;9.77;;;23.10;70.70;;;;;;5015712;28;109739;-43
2021/04/02 09:05:16;;;;;;;20.35;9.85;;;23.10;70.80;;;;;;5016261;28;124971;-48
2021/04/02 09:07:46;;;;;;;18.90;11.20;;;23.00;70.80;;;;;;5015940;28;124770;-43
2021/04/02 09:10:18;;;;;;;15.70;8.93;;;23.00;70.70;;;;;;5010743;28;116870;-44
2021/04/02 09:12:50;;;;;;;15.75;10.07;;;23.00;70.90;;;;;;5003351;27;113764;-43
2021/04/02 09:15:29;;;;;;;20.90;11.40;;;22.90;70.80;;;;;;5002906;28;123846;-50
2021/04/02 09:18:17;;;;;;;17.52;11.95;;;22.90;70.80;;;;;;5006943;28;123408;-44
2021/04/02 09:20:47;;;;;;;20.08;12.13;;;22.90;70.90;;;;;;5007789;28;117630;-51
2021/04/02 09:23:33;;;;;;;;;;;;;;;;;;;;;
2021/04/02 09:26:08;;;;;;;19.83;11.75;;;22.80;71.00;;;;;;5020908;28;125931;-53
2021/04/02 09:31:48;;;;;;;22.33;13.20;;;22.70;71.00;;;;;;5003068;28;116739;-49
2021/04/02 09:34:22;;;;;;;17.20;12.38;;;22.70;71.30;;;;;;5005558;28;113123;-51
2021/04/02 09:36:52;;;;;;;19.35;13.90;;;22.70;71.20;;;;;;5009187;28;123346;-49
2021/04/02 09:39:29;;;;;;;19.95;14.00;;;22.60;71.10;;;;;;5021243;28;124643;-51
2021/04/02 09:42:02;;;;;;;24.50;14.15;;;22.70;71.20;;;;;;5012846;27;118114;-52
2021/04/02 09:44:38;;;;;;;19.63;13.88;;;22.60;71.60;;;;;;5011692;28;100868;-51
2021/04/02 09:47:12;;;;;;;20.90;15.07;;;22.60;71.60;;;;;;5009468;27;123662;-50
2021/04/02 09:49:46;;;;;;;19.42;14.20;;;22.60;71.60;;;;;;5012563;28;124873;-49
2021/04/02 09:52:18;;;;;;;21.30;15.07;;;22.50;71.60;;;;;;5021656;27;115610;-51
2021/04/02 09:54:57;;;;;;;25.55;15.60;;;22.50;71.70;;;;;;5026071;28;112214;-50
2021/04/02 09:57:31;;;;;;;22.92;14.98;;;22.50;71.60;;;;;;5021061;28;125606;-52
2021/04/02 10:00:09;;;;;;;22.30;15.55;;;22.50;71.60;;;;;;5018872;28;124589;-51
2021/04/02 10:02:41;;;;;;;21.15;14.75;;;22.50;71.70;;;;;;5005593;27;116254;-52
2021/04/02 10:05:12;;;;;;;18.33;13.90;;;22.40;71.90;;;;;;5016879;28;111690;-44
2021/04/02 10:07:42;;;;;;;29.33;15.80;;;22.40;71.90;;;;;;5006911;28;123471;-43
2021/04/02 10:10:11;;;;;;;17.10;13.30;;;22.40;72.00;;;;;;5014720;28;125407;-50
2021/04/02 10:12:43;;;;;;;23.23;14.65;;;22.40;72.10;;;;;;5024888;28;116276;-50
2021/04/02 10:15:17;;;;;;;19.52;13.88;;;22.40;72.10;;;;;;5018877;27;111831;-53
2021/04/02 10:17:48;;;;;;;22.58;14.50;;;22.30;72.10;;;;;;5017424;28;126725;-51
2021/04/02 10:20:18;;;;;;;17.70;12.57;;;22.30;72.80;;;;;;5011479;27;122913;-50
2021/04/02 10:22:47;;;;;;;20.35;13.00;;;22.30;72.80;;;;;;5019743;28;116878;-51
2021/04/02 10:25:17;;;;;;;20.08;14.43;;;22.30;73.20;;;;;;5010374;28;112663;-50
2021/04/02 10:27:47;;;;;;;18.52;12.57;;;22.20;73.10;;;;;;5015995;28;124831;-49
2021/04/02 10:30:19;;;;;;;20.67;13.88;;;22.20;73.20;;;;;;5005843;27;125516;-52
2021/04/02 10:32:50;;;;;;;17.63;12.55;;;22.20;73.30;;;;;;5022410;28;117863;-50
2021/04/02 10:35:21;;;;;;;19.20;13.85;;;22.20;73.40;;;;;;5015606;27;112151;-50
2021/04/02 10:37:52;;;;;;;16.27;12.68;;;22.10;73.40;;;;;;5012931;28;125523;-48
2021/04/02 10:40:22;;;;;;;20.48;13.38;;;22.10;73.50;;;;;;5006478;27;125300;-51
2021/04/02 10:42:51;;;;;;;19.23;13.20;;;22.10;73.50;;;;;;5013149;28;115243;-51
2021/04/02 10:45:24;;;;;;;17.90;13.18;;;22.10;73.50;;;;;;5018652;28;110896;-44
2021/04/02 10:47:56;;;;;;;18.90;13.60;;;22.00;73.50;;;;;;5019085;28;130963;-50
2021/04/02 10:50:29;;;;;;;18.17;13.45;;;22.00;73.60;;;;;;5013676;28;123396;-50
2021/04/02 10:53:01;;;;;;;25.25;14.13;;;22.00;73.60;;;;;;5019676;28;117429;-50
2021/04/02 10:55:32;;;;;;;21.15;12.95;;;22.00;73.60;;;;;;5015804;28;110603;-53
2021/04/02 10:58:07;;;;;;;16.85;13.68;;;22.00;73.60;;;;;;5020690;28;125468;-52
2021/04/02 11:00:40;;;;;;;18.58;12.93;;;22.00;73.70;;;;;;4999237;28;123094;-44
2021/04/02 11:03:12;;;;;;;17.08;13.20;;;21.90;73.70;;;;;;5012606;28;116357;-45
2021/04/02 11:05:43;;;;;;;17.45;13.30;;;21.90;73.80;;;;;;5005582;27;112808;-51
2021/04/02 11:08:13;;;;;;;19.23;13.65;;;21.90;73.80;;;;;;5014620;28;124975;-44
2021/04/02 11:10:43;;;;;;;17.38;13.20;;;21.90;73.90;;;;;;4993111;28;124303;-44
2021/04/02 11:13:15;;;;;;;19.40;14.60;;;21.90;73.90;;;;;;5008781;28;116485;-45
2021/04/02 11:15:46;;;;;;;22.08;14.35;;;21.80;73.90;;;;;;5017206;28;112600;-44
2021/04/02 11:18:17;;;;;;;17.92;13.13;;;21.80;74.00;;;;;;5011697;28;123438;-45
2021/04/02 11:20:48;;;;;;;17.63;13.23;;;21.80;74.70;;;;;;5014548;28;123009;-50
2021/04/02 11:23:18;;;;;;;16.88;13.07;;;21.80;74.10;;;;;;5012745;28;118996;-44
2021/04/02 11:25:48;;;;;;;22.50;14.32;;;21.80;74.10;;;;;;5018711;28;112290;-44
2021/04/02 11:28:18;;;;;;;18.02;12.93;;;21.70;74.10;;;;;;5005611;28;126703;-44
2021/04/02 11:30:50;;;;;;;17.25;12.75;;;21.70;74.10;;;;;;4990753;28;124153;-44
2021/04/02 11:33:20;;;;;;;15.98;12.45;;;21.70;74.10;;;;;;5008912;28;121575;-44
2021/04/02 11:35:51;;;;;;;18.95;14.02;;;21.70;74.20;;;;;;5020342;28;112120;-51
2021/04/02 11:38:21;;;;;;;18.55;14.48;;;21.70;74.20;;;;;;5008900;27;123553;-44
2021/04/02 11:40:51;;;;;;;21.30;14.50;;;21.60;74.30;;;;;;5004171;28;125190;-44
2021/04/02 11:43:22;;;;;;;19.20;14.45;;;21.60;74.30;;;;;;5014876;27;115363;-44
2021/04/02 11:45:54;;;;;;;18.92;13.98;;;21.60;74.30;;;;;;4989290;28;112030;-44
2021/04/02 11:48:24;;;;;;;17.83;14.32;;;21.50;74.40;;;;;;5003587;27;126070;-44
2021/04/02 11:50:56;;;;;;;18.00;13.70;;;21.60;74.50;;;;;;5010450;27;123236;-45
2021/04/02 11:53:27;;;;;;;17.83;14.82;;;21.50;74.40;;;;;;5010378;27;117073;-44
2021/04/02 11:56:02;;;;;;;17.85;14.15;;;21.50;74.60;;;;;;5018919;28;113110;-44
2021/04/02 11:58:32;;;;;;;16.95;13.43;;;21.50;74.60;;;;;;5010494;28;125351;-43
2021/04/02 12:01:04;;;;;;;17.23;13.60;;;21.50;74.50;;;;;;5005755;28;125385;-43
2021/04/02 12:03:39;;;;;;;19.40;14.82;;;21.50;74.40;;;;;;4992821;28;115724;-44
2021/04/02 12:06:09;;;;;;;16.67;13.30;;;21.40;74.40;;;;;;5012523;28;112514;-43
2021/04/02 12:08:39;;;;;;;20.55;14.77;;;21.40;74.60;;;;;;5011937;27;124805;-44
2021/04/02 12:11:15;;;;;;;16.80;13.93;;;21.40;74.60;;;;;;5015270;28;125198;-44
2021/04/02 12:13:46;;;;;;;16.73;13.20;;;21.40;74.60;;;;;;5018011;28;116400;-44
2021/04/02 12:16:17;;;;;;;;;;;21.40;74.70;;;;;;5005075;28;110611;-44
2021/04/02 12:18:50;;;;;;;18.63;13.75;;;21.30;74.80;;;;;;5009940;28;124697;-45
2021/04/02 12:21:20;;;;;;;21.25;15.27;;;21.30;74.80;;;;;;5006071;28;124937;-44
2021/04/02 12:23:52;;;;;;;15.98;12.15;;;21.30;74.80;;;;;;5009852;27;115063;-44
2021/04/02 12:26:22;;;;;;;17.05;12.77;;;21.30;74.80;;;;;;5014516;28;112311;-44
2021/04/02 12:28:53;;;;;;;19.17;12.82;;;21.30;74.90;;;;;;5015934;28;124937;-44
2021/04/02 12:31:24;;;;;;;16.08;12.93;;;21.20;74.90;;;;;;5014547;28;124000;-44
2021/04/02 12:33:57;;;;;;;17.15;13.70;;;21.20;75.00;;;;;;5010897;27;116462;-44
2021/04/02 12:36:29;;;;;;;20.85;14.35;;;21.20;75.00;;;;;;5019319;28;111419;-44
2021/04/02 12:39:00;;;;;;;20.80;13.77;;;21.10;75.00;;;;;;5009298;27;126100;-45
2021/04/02 12:41:31;;;;;;;18.55;13.60;;;21.10;75.10;;;;;;5013817;28;125228;-43
2021/04/02 12:44:02;;;;;;;20.08;14.70;;;21.10;75.00;;;;;;5008495;27;116937;-44
2021/04/02 12:46:34;;;;;;;16.65;13.02;;;21.10;75.00;;;;;;5010835;28;113082;-44
2021/04/02 12:49:06;;;;;;;15.95;12.82;;;21.10;75.10;;;;;;5013738;28;123511;-43
2021/04/02 12:51:36;;;;;;;15.98;12.20;;;21.10;75.20;;;;;;5015360;28;124931;-44
2021/04/02 12:54:09;;;;;;;18.77;13.15;;;21.00;75.10;;;;;;4994871;27;117787;-45
2021/04/02 12:56:40;;;;;;;19.50;12.63;;;21.00;75.20;;;;;;5012920;28;112437;-44
2021/04/02 12:59:10;;;;;;;18.42;13.98;;;21.00;75.20;;;;;;5020758;28;125562;-45
2021/04/02 13:01:42;;;;;;;18.00;12.57;;;21.00;75.20;;;;;;5014433;27;124103;-44
2021/04/02 13:04:12;;;;;;;16.75;12.82;;;21.00;75.30;;;;;;4991600;28;118407;-44
2021/04/02 13:06:44;;;;;;;18.08;14.02;;;20.90;75.20;;;;;;5006375;27;111920;-45
2021/04/02 13:09:14;;;;;;;16.73;12.20;;;20.90;75.20;;;;;;5006739;28;126173;-44